Grayslake, IL (60030)

11:42 AM CDT on July 29, 2016 (GMT -0500)
Haryan Farms | | Change Station
Active Advisory: Beach Hazard Statement

Elev 780 ft 42.36 °N, 88.05 °W | Updated 19 seconds ago

Scattered Clouds
Scattered Clouds
76.9 °F
Feels Like 78 °F
N
0.0
Wind Variable Wind from ENE
Gusts 0.0 mph

Today
High -- | Low -- °F
--% Chance of Precip.
Yesterday
High -- | Low -- °F
Precip. -- in
Pressure 29.96 in
Visibility 10.0 miles
Clouds Scattered Clouds 1200 ft
Heat Index 78 °F
Dew Point 73 °F
Humidity 88%
Rainfall 0.00 in
Snow Depth Not available.
5:42 AM 8:14 PM
Waning Crescent, 21% visible
SPECI KUGN 291616Z 07011KT 10SM SCT012 23/20 A2996 RMK AO2 T02330200
Pressure 29.96 in
Visibility 10.0 miles
Clouds Scattered Clouds 1200 ft
Heat Index 78 °F
Dew Point 73 °F
Humidity 88%
Rainfall 0.00 in
Snow Depth Not available.
5:42 AM 8:14 PM
Waning Crescent, 21% visible
SPECI KUGN 291616Z 07011KT 10SM SCT012 23/20 A2996 RMK AO2 T02330200

10-Day Weather Forecast

Almanac

Astronomy

Jul. 29, 2016 Rise Set
Actual Time
Civil Twilight
Nautical Twilight
Astronomical Twilight
Moon
Length of Visible Light
Length of Day
Tomorrow will be .
, % of the Moon is Illuminated

Today's Extremes

State Highs State Lows

Community

WunderPhotos

Upload Photos

1,928,378 photos uploaded!

WunderBlog® & News

Nearby

Air Quality

  Air Quality AQ Index Pollutant
Not available.

Snow Depth

Station Depth Elevation

Earthquake Activity

City Distance Mag. Time & Date
Minimum magnitude displayed is 2.5.

Coastal Water Temperatures

Place Temperature

Stations

Nearby Weather Stations

Station Location Temp. Windchill Dew Point Humidity Wind Precip. Elev Updated Type
                   

Watches & Warnings

Beach Hazard Statement
Issued: 10:32 AM CDT Jul. 29, 2016 – National Weather Service

... Beach hazards statement remains in effect through late
tonight...

* location... northeast Illinois beaches and Northwest Indiana
beaches on Northern Lake County.

* Forecast wave heights... 3 to 5 feet.

* Strong rip currents and structural currents expected.

Precautionary/preparedness actions...

Life threatening waves and currents are expected at the beaches.
People visiting the beaches should stay out of the water.

Rip currents are powerful channels of water flowing quickly away
from shore... which occur most often at low spots or breaks in
sandbars. Rip currents can sweep you into deeper water.

Structural currents form along piers where longshore currents and
wave action flow into the structure. Structural currents can
sweep you into deeper water along the pier structure.

Exposed beaches are more likely to experience the most
significant wave and current impacts. Impacts at beaches with
protective breakwalls or jetties will be subject to the
orientation of structures as well as wind and wave direction.

For information on swim advisories or bans at Chicago beaches
visit... www.Cpdbeaches.Com.